createdAt,value
2023-03-18T00:01:03.842Z,7.75
2023-03-18T00:06:28.580Z,7.72
2023-03-18T00:11:53.960Z,7.80
2023-03-18T00:17:18.010Z,8.32
2023-03-18T00:22:43.337Z,9.40
2023-03-18T00:28:09.101Z,9.10
2023-03-18T00:33:32.799Z,8.27
2023-03-18T00:38:58.392Z,8.07
2023-03-18T00:44:23.569Z,8.45
2023-03-18T00:49:48.206Z,9.63
2023-03-18T00:55:12.292Z,9.20
2023-03-18T01:00:38.068Z,8.73
2023-03-18T01:06:02.480Z,9.50
2023-03-18T01:11:27.667Z,9.38
2023-03-18T01:16:53.351Z,9.45
2023-03-18T01:22:17.108Z,8.65
2023-03-18T01:27:46.084Z,8.45
2023-03-18T01:33:11.635Z,7.25
2023-03-18T01:38:35.596Z,7.65
2023-03-18T01:44:15.156Z,6.90
2023-03-18T01:49:46.099Z,7.72
2023-03-18T01:55:14.056Z,7.32
2023-03-18T02:00:41.656Z,6.32
2023-03-18T02:06:08.233Z,6.88
2023-03-18T02:11:34.408Z,6.93
2023-03-18T02:17:02.717Z,6.32
2023-03-18T02:22:34.295Z,6.47
2023-03-18T02:28:04.308Z,6.38
2023-03-18T02:33:34.800Z,6.18
2023-03-18T02:39:00.396Z,6.80
2023-03-18T02:44:25.845Z,6.50
2023-03-18T02:50:15.995Z,6.37
2023-03-18T02:55:39.869Z,5.55
2023-03-18T03:01:05.520Z,6.10
2023-03-18T03:06:29.657Z,7.32
2023-03-18T03:11:53.918Z,5.22
2023-03-18T03:17:22.213Z,5.43
2023-03-18T03:22:47.701Z,5.70
2023-03-18T03:28:16.680Z,5.88
2023-03-18T03:33:43.772Z,6.68
2023-03-18T03:39:07.668Z,5.47
2023-03-18T03:44:32.272Z,5.35
2023-03-18T03:49:57.720Z,4.88
2023-03-18T03:55:22.971Z,4.97
2023-03-18T04:00:47.944Z,5.68
2023-03-18T04:06:13.364Z,5.88
2023-03-18T04:11:44.907Z,5.32
2023-03-18T04:17:09.690Z,5.05
2023-03-18T04:22:36.226Z,5.13
2023-03-18T04:28:03.508Z,4.80
2023-03-18T04:33:27.909Z,5.53
2023-03-18T04:38:53.068Z,5.45
2023-03-18T04:44:19.374Z,5.43
2023-03-18T04:49:47.870Z,4.65
2023-03-18T04:55:16.458Z,4.70
2023-03-18T05:00:40.618Z,5.50
2023-03-18T05:06:23.091Z,5.07
2023-03-18T05:11:59.342Z,4.83
2023-03-18T05:17:32.686Z,5.70
2023-03-18T05:22:59.989Z,5.25
2023-03-18T05:29:00.689Z,6.00
2023-03-18T05:34:33.119Z,5.57
2023-03-18T05:39:56.957Z,6.13
2023-03-18T05:45:22.884Z,7.10
2023-03-18T05:50:51.993Z,6.68
2023-03-18T05:56:20.353Z,6.05
2023-03-18T06:01:50.425Z,6.22
2023-03-18T06:07:14.239Z,6.75
2023-03-18T06:12:38.289Z,7.25
2023-03-18T06:18:04.869Z,6.28
2023-03-18T06:23:29.017Z,7.57
2023-03-18T06:28:52.942Z,7.07
2023-03-18T06:34:19.215Z,6.53
2023-03-18T06:39:43.197Z,6.35
2023-03-18T06:45:08.901Z,5.53
2023-03-18T06:50:49.889Z,5.53
2023-03-18T06:56:26.010Z,5.57
2023-03-18T07:01:59.618Z,5.72
2023-03-18T07:07:24.952Z,4.93
2023-03-18T07:12:50.493Z,5.68
2023-03-18T07:18:15.893Z,4.95
2023-03-18T07:23:41.306Z,5.78
2023-03-18T07:29:05.275Z,5.15
2023-03-18T07:34:29.768Z,4.93
2023-03-18T07:39:55.017Z,5.72
2023-03-18T07:45:19.124Z,5.80
2023-03-18T07:50:43.059Z,5.70
2023-03-18T07:56:09.915Z,4.47
2023-03-18T08:01:33.730Z,4.53
2023-03-18T08:06:57.941Z,5.10
2023-03-18T08:12:24.031Z,5.55
2023-03-18T08:17:47.822Z,5.82
2023-03-18T08:23:12.176Z,4.43
2023-03-18T08:28:37.670Z,6.38
2023-03-18T08:34:01.550Z,4.93
2023-03-18T08:39:25.368Z,5.80
2023-03-18T08:44:51.236Z,5.55
2023-03-18T08:50:15.346Z,5.72
2023-03-18T08:55:39.242Z,5.60
2023-03-18T09:01:05.504Z,5.15
2023-03-18T09:06:30.150Z,4.90
2023-03-18T09:11:54.636Z,5.03
2023-03-18T09:17:19.776Z,4.63
2023-03-18T09:22:47.007Z,5.00
2023-03-18T09:28:11.033Z,5.22
2023-03-18T09:33:37.122Z,4.93
2023-03-18T09:39:01.351Z,4.95
2023-03-18T09:44:27.122Z,5.10
2023-03-18T09:50:05.741Z,4.00
2023-03-18T09:55:36.402Z,5.40
2023-03-18T10:01:03.254Z,5.00
2023-03-18T10:06:28.437Z,5.03
2023-03-18T10:11:55.033Z,5.93
2023-03-18T10:17:22.511Z,5.88
2023-03-18T10:23:15.862Z,4.75
2023-03-18T10:28:54.548Z,5.20
2023-03-18T10:34:22.825Z,4.13
2023-03-18T10:39:49.413Z,4.38
2023-03-18T10:45:25.694Z,4.63
2023-03-18T10:50:57.757Z,4.80
2023-03-18T10:56:22.876Z,4.15
2023-03-18T11:01:49.875Z,4.18
2023-03-18T11:07:18.818Z,4.53
2023-03-18T11:12:44.796Z,4.15
2023-03-18T11:18:19.567Z,4.40
2023-03-18T11:23:56.579Z,4.50
2023-03-18T11:29:25.304Z,4.43
2023-03-18T11:34:57.297Z,4.60
2023-03-18T11:40:32.275Z,4.05
2023-03-18T11:46:00.560Z,5.15
2023-03-18T11:51:44.607Z,4.88
2023-03-18T11:57:15.638Z,4.60
2023-03-18T12:02:56.356Z,4.47
2023-03-18T12:08:29.637Z,4.60
2023-03-18T12:14:02.516Z,5.03
2023-03-18T12:19:54.143Z,4.28
2023-03-18T12:25:54.109Z,4.43
2023-03-18T12:31:37.798Z,5.10
2023-03-18T12:37:15.459Z,4.18
2023-03-18T12:43:04.140Z,5.03
2023-03-18T12:48:43.581Z,4.72
2023-03-18T12:54:16.966Z,4.18
2023-03-18T12:59:45.870Z,5.45
2023-03-18T13:05:22.351Z,5.32
2023-03-18T13:10:51.520Z,4.22
2023-03-18T13:16:16.679Z,3.90
2023-03-18T13:21:44.197Z,4.68
2023-03-18T13:27:35.917Z,4.07
2023-03-18T13:33:23.208Z,4.40
2023-03-18T13:39:10.210Z,4.95
2023-03-18T13:44:43.914Z,4.88
2023-03-18T13:50:27.138Z,4.80
2023-03-18T13:56:01.008Z,4.75
2023-03-18T14:01:33.464Z,4.07
2023-03-18T14:07:12.405Z,4.40
2023-03-18T14:12:41.692Z,4.35
2023-03-18T14:18:20.325Z,3.95
2023-03-18T14:23:45.336Z,3.70
2023-03-18T14:29:23.669Z,3.67
2023-03-18T14:34:57.516Z,4.97
2023-03-18T14:40:22.364Z,4.50
2023-03-18T14:45:49.513Z,3.42
2023-03-18T14:51:19.176Z,4.10
2023-03-18T14:56:43.933Z,7.68
2023-03-18T15:02:22.340Z,5.10
2023-03-18T15:07:52.837Z,3.97
2023-03-18T15:13:20.401Z,5.45
2023-03-18T15:18:44.604Z,5.90
2023-03-18T15:24:10.655Z,5.85
2023-03-18T15:29:38.744Z,13.55
2023-03-18T15:35:14.839Z,7.63
2023-03-18T15:40:47.990Z,6.30
2023-03-18T15:46:19.210Z,4.72
2023-03-18T15:57:15.054Z,7.57
2023-03-18T16:02:39.297Z,5.93
2023-03-18T16:08:03.470Z,6.85
2023-03-18T16:13:35.658Z,8.38
2023-03-18T16:18:59.810Z,5.78
2023-03-18T16:24:24.421Z,6.10
2023-03-18T16:29:49.798Z,4.57
2023-03-18T16:35:15.917Z,8.00
2023-03-18T16:40:39.680Z,6.30
2023-03-18T16:46:17.985Z,6.47
2023-03-18T16:51:43.179Z,4.80
2023-03-18T16:57:08.185Z,5.00
2023-03-18T17:02:34.548Z,5.40
2023-03-18T17:07:58.309Z,6.53
2023-03-18T17:13:29.866Z,13.43
2023-03-18T17:19:01.216Z,8.93
2023-03-18T17:24:41.314Z,7.93
2023-03-18T17:30:19.107Z,6.70
2023-03-18T17:35:44.313Z,7.18
2023-03-18T17:41:16.465Z,7.30
2023-03-18T17:46:41.387Z,6.80
2023-03-18T17:52:06.994Z,6.03
2023-03-18T17:57:32.020Z,9.40
2023-03-18T18:02:57.803Z,7.80
2023-03-18T18:08:25.505Z,8.63
2023-03-18T18:13:49.923Z,7.32
2023-03-18T18:19:14.452Z,7.55
2023-03-18T18:24:39.726Z,6.90
2023-03-18T18:30:03.712Z,6.80
2023-03-18T18:35:27.589Z,6.90
2023-03-18T18:40:53.732Z,7.05
2023-03-18T18:46:18.384Z,7.03
2023-03-18T18:51:42.196Z,8.50
2023-03-18T18:57:19.661Z,8.27
2023-03-18T19:02:43.391Z,9.88
2023-03-18T19:08:07.440Z,10.43
2023-03-18T19:13:34.797Z,10.93
2023-03-18T19:18:59.929Z,12.13
2023-03-18T19:24:29.402Z,11.80
2023-03-18T19:29:57.253Z,13.93
2023-03-18T19:35:21.002Z,14.02
2023-03-18T19:40:44.938Z,14.48
2023-03-18T19:46:16.144Z,16.10
2023-03-18T19:51:39.965Z,13.85
2023-03-18T19:57:06.868Z,8.18
2023-03-18T20:02:33.546Z,9.43
2023-03-18T20:07:57.239Z,8.15
2023-03-18T20:13:24.502Z,7.28
2023-03-18T20:18:49.665Z,7.35
2023-03-18T20:24:16.066Z,7.40
2023-03-18T20:29:40.013Z,7.05
2023-03-18T20:35:05.542Z,7.90
2023-03-18T20:40:31.318Z,7.70
2023-03-18T20:45:56.721Z,7.97
2023-03-18T20:51:24.312Z,8.80
2023-03-18T20:56:48.111Z,7.85
2023-03-18T21:02:28.364Z,6.97
2023-03-18T21:07:54.033Z,8.23
2023-03-18T21:13:21.477Z,7.72
2023-03-18T21:18:46.500Z,7.45
2023-03-18T21:24:25.713Z,7.60
2023-03-18T21:29:51.164Z,7.85
2023-03-18T21:35:20.442Z,7.45
2023-03-18T21:40:45.824Z,7.53
2023-03-18T21:46:14.709Z,8.02
2023-03-18T21:51:40.272Z,7.05
2023-03-18T21:57:05.769Z,7.30
2023-03-18T22:02:31.539Z,8.10
2023-03-18T22:07:55.476Z,8.00
2023-03-18T22:13:23.022Z,7.25
2023-03-18T22:18:47.648Z,7.97
2023-03-18T22:24:15.702Z,7.47
2023-03-18T22:29:40.833Z,8.02
2023-03-18T22:35:06.189Z,7.32
2023-03-18T22:40:32.595Z,7.78
2023-03-18T22:45:58.093Z,8.10
2023-03-18T22:51:25.075Z,9.00
2023-03-18T22:56:48.821Z,8.63
2023-03-18T23:02:18.411Z,8.73
2023-03-18T23:07:42.343Z,9.60
2023-03-18T23:13:16.415Z,8.48
2023-03-18T23:18:41.825Z,9.70
2023-03-18T23:24:06.552Z,9.20
2023-03-18T23:29:30.736Z,9.02
2023-03-18T23:34:55.985Z,7.88
2023-03-18T23:40:19.898Z,9.30
2023-03-18T23:45:43.733Z,9.25
2023-03-18T23:51:08.876Z,9.88
2023-03-18T23:56:33.452Z,8.98
